Wetterdaten: Woche 07.08.17 - 13.08.17 (KW32)
Datum Zeit Temp. Aussen Temp. o. S. +5cm Feuchte Auss BlattFeu 1 Luftdruck Regen Sonnenschein Regendauer Solar Windben Empfang
07.08.2017 00:00 13,9 C 12,8 C 11,2 C 86 % 0 lf 1021,4 hPa 0,0 l/m 0,00 h 0,00 h 3 W/m 1,2 km/h (1 Bft) 95,62 %
07.08.2017 01:00 13,1 C 12,2 C 10,6 C 88 % 1 lf 1021,1 hPa 0,0 l/m 0,00 h 0,00 h 4 W/m 1,0 km/h (0 Bft) 94,73 %
07.08.2017 02:00 12,6 C 12,2 C 10,6 C 90 % 0 lf 1020,6 hPa 0,0 l/m 0,00 h 0,00 h 3 W/m 3,9 km/h (1 Bft) 98,15 %
07.08.2017 03:00 12,3 C 11,9 C 10,1 C 90 % 0 lf 1020,3 hPa 0,0 l/m 0,00 h 0,00 h 4 W/m 0,0 km/h (0 Bft) 98,14 %
07.08.2017 04:00 11,9 C 11,4 C 9,8 C 90 % 0 lf 1020,1 hPa 0,0 l/m 0,00 h 0,00 h 3 W/m 4,1 km/h (1 Bft) 93,01 %
07.08.2017 05:00 11,4 C 10,3 C 9,1 C 90 % 1 lf 1020,0 hPa 0,0 l/m 0,00 h 0,00 h 4 W/m 1,8 km/h (1 Bft) 98,50 %
07.08.2017 06:00 10,9 C 10,5 C 9,2 C 91 % 2 lf 1019,8 hPa 0,0 l/m 0,50 h 0,00 h 29 W/m 4,7 km/h (1 Bft) 96,68 %
07.08.2017 07:00 11,6 C 12,3 C 10,9 C 94 % 0 lf 1019,7 hPa 0,0 l/m 1,00 h 0,00 h 154 W/m 7,7 km/h (2 Bft) 95,91 %
07.08.2017 08:00 13,1 C 16,4 C 12,8 C 94 % 0 lf 1019,6 hPa 0,0 l/m 1,00 h 0,00 h 334 W/m 8,7 km/h (2 Bft) 95,39 %
07.08.2017 09:00 16,9 C 24,7 C 17,0 C 81 % 0 lf 1019,3 hPa 0,0 l/m 1,00 h 0,00 h 524 W/m 9,0 km/h (2 Bft) 97,08 %
07.08.2017 10:00 20,6 C 30,4 C 26,4 C 68 % 0 lf 1019,1 hPa 0,0 l/m 1,00 h 0,00 h 693 W/m 6,2 km/h (2 Bft) 95,65 %
07.08.2017 11:00 23,0 C 32,5 C 27,3 C 60 % 0 lf 1018,8 hPa 0,0 l/m 1,00 h 0,00 h 752 W/m 7,1 km/h (2 Bft) 97,32 %
07.08.2017 12:00 24,1 C 31,7 C 26,9 C 55 % 0 lf 1018,3 hPa 0,0 l/m 0,60 h 0,00 h 504 W/m 8,3 km/h (2 Bft) 95,45 %
07.08.2017 13:00 24,3 C 32,2 C 25,0 C 53 % 0 lf 1017,7 hPa 0,0 l/m 0,83 h 0,00 h 800 W/m 9,1 km/h (2 Bft) 96,81 %
07.08.2017 14:00 25,6 C 33,5 C 27,6 C 49 % 0 lf 1017,2 hPa 0,0 l/m 1,00 h 0,00 h 865 W/m 11,5 km/h (2 Bft) 96,72 %
07.08.2017 15:00 25,8 C 31,5 C 32,7 C 49 % 0 lf 1016,7 hPa 0,0 l/m 0,90 h 0,00 h 683 W/m 9,3 km/h (2 Bft) 95,94 %
07.08.2017 16:00 26,5 C 29,6 C 30,8 C 48 % 0 lf 1016,1 hPa 0,0 l/m 1,00 h 0,00 h 650 W/m 9,0 km/h (2 Bft) 96,15 %
07.08.2017 17:00 26,0 C 26,4 C 24,4 C 48 % 0 lf 1015,5 hPa 0,0 l/m 1,00 h 0,00 h 440 W/m 9,2 km/h (2 Bft) 97,99 %
07.08.2017 18:00 25,0 C 25,9 C 23,7 C 50 % 0 lf 1015,0 hPa 0,0 l/m 1,00 h 0,00 h 272 W/m 8,0 km/h (2 Bft) 95,51 %
07.08.2017 19:00 23,9 C 23,7 C 22,1 C 55 % 0 lf 1014,5 hPa 0,0 l/m 0,83 h 0,00 h 138 W/m 11,5 km/h (2 Bft) 97,30 %
07.08.2017 20:00 22,7 C 21,7 C 20,3 C 59 % 0 lf 1013,9 hPa 0,0 l/m 0,40 h 0,00 h 44 W/m 9,3 km/h (2 Bft) 96,44 %
07.08.2017 21:00 21,2 C 18,8 C 16,9 C 63 % 0 lf 1014,1 hPa 0,0 l/m 0,00 h 0,00 h 5 W/m 6,0 km/h (2 Bft) 96,69 %
07.08.2017 22:00 19,5 C 17,3 C 15,5 C 69 % 0 lf 1014,0 hPa 0,0 l/m 0,00 h 0,00 h 2 W/m 5,2 km/h (1 Bft) 95,82 %
07.08.2017 23:00 18,3 C 16,5 C 15,0 C 73 % 0 lf 1013,9 hPa 0,0 l/m 0,00 h 0,00 h 2 W/m 3,1 km/h (1 Bft) 96,80 %
08.08.2017 00:00 17,4 C 15,4 C 13,8 C 75 % 0 lf 1013,5 hPa 0,0 l/m 0,00 h 0,00 h 3 W/m 1,5 km/h (1 Bft) 97,84 %
08.08.2017 01:00 16,5 C 15,0 C 13,7 C 78 % 0 lf 1012,9 hPa 0,0 l/m 0,00 h 0,00 h 4 W/m 1,7 km/h (1 Bft) 94,39 %
08.08.2017 02:00 15,9 C 14,7 C 13,7 C 81 % 0 lf 1011,9 hPa 0,0 l/m 0,00 h 0,00 h 3 W/m 1,0 km/h (0 Bft) 96,51 %
08.08.2017 03:00 15,4 C 13,5 C 12,4 C 82 % 0 lf 1011,0 hPa 0,0 l/m 0,00 h 0,00 h 3 W/m 0,0 km/h (0 Bft) 98,93 %
08.08.2017 04:00 14,7 C 13,3 C 12,4 C 85 % 0 lf 1010,5 hPa 0,0 l/m 0,00 h 0,00 h 4 W/m 0,2 km/h (0 Bft) 95,76 %
08.08.2017 05:00 14,5 C 13,4 C 12,3 C 88 % 0 lf 1009,6 hPa 0,0 l/m 0,00 h 0,00 h 4 W/m 0,2 km/h (0 Bft) 95,33 %
08.08.2017 06:00 14,4 C 14,5 C 13,1 C 90 % 0 lf 1009,0 hPa 0,0 l/m 0,00 h 0,00 h 26 W/m 3,0 km/h (1 Bft) 97,36 %
08.08.2017 07:00 15,2 C 17,3 C 15,7 C 89 % 0 lf 1008,4 hPa 0,0 l/m 0,93 h 0,00 h 164 W/m 7,6 km/h (2 Bft) 96,66 %
08.08.2017 08:00 17,5 C 19,5 C 18,5 C 84 % 0 lf 1008,3 hPa 0,0 l/m 0,63 h 0,00 h 202 W/m 7,3 km/h (2 Bft) 96,23 %
08.08.2017 09:00 18,9 C 20,1 C 19,5 C 80 % 0 lf 1008,0 hPa 0,0 l/m 0,00 h 0,00 h 172 W/m 9,5 km/h (2 Bft) 97,29 %
08.08.2017 10:00 19,9 C 21,1 C 20,6 C 74 % 0 lf 1007,2 hPa 0,0 l/m 0,00 h 0,00 h 203 W/m 14,8 km/h (3 Bft) 94,33 %
08.08.2017 11:00 20,3 C 20,7 C 20,3 C 73 % 0 lf 1007,1 hPa 0,0 l/m 0,00 h 0,03 h 172 W/m 16,1 km/h (3 Bft) 98,61 %
08.08.2017 12:00 20,1 C 20,2 C 19,6 C 76 % 0 lf 1007,2 hPa 0,0 l/m 0,00 h 0,73 h 212 W/m 16,4 km/h (3 Bft) 95,15 %
08.08.2017 13:00 20,2 C 21,0 C 20,3 C 79 % 0 lf 1006,7 hPa 0,0 l/m 0,00 h 0,50 h 177 W/m 8,0 km/h (2 Bft) 95,17 %
08.08.2017 14:00 20,7 C 20,7 C 19,4 C 80 % 3 lf 1006,6 hPa 0,0 l/m 0,03 h 0,50 h 216 W/m 9,1 km/h (2 Bft) 97,73 %
08.08.2017 15:00 20,5 C 19,0 C 18,3 C 82 % 8 lf 1006,8 hPa 0,6 l/m 0,00 h 0,57 h 98 W/m 12,6 km/h (3 Bft) 96,28 %
08.08.2017 16:00 19,4 C 18,3 C 18,0 C 89 % 7 lf 1006,8 hPa 0,0 l/m 0,03 h 0,10 h 135 W/m 8,0 km/h (2 Bft) 94,93 %
08.08.2017 17:00 19,2 C 18,1 C 17,6 C 90 % 8 lf 1006,9 hPa 0,0 l/m 0,07 h 0,57 h 123 W/m 15,3 km/h (3 Bft) 98,36 %
08.08.2017 18:00 18,4 C 18,0 C 16,8 C 90 % 1 lf 1007,3 hPa 0,2 l/m 0,00 h 0,03 h 87 W/m 24,3 km/h (4 Bft) 96,94 %
08.08.2017 19:00 17,3 C 17,2 C 15,8 C 89 % 0 lf 1008,2 hPa 0,0 l/m 0,10 h 0,00 h 71 W/m 29,4 km/h (5 Bft) 94,23 %
08.08.2017 20:00 16,3 C 15,9 C 14,7 C 90 % 0 lf 1009,2 hPa 0,0 l/m 0,00 h 0,03 h 14 W/m 23,9 km/h (4 Bft) 97,79 %
08.08.2017 21:00 15,2 C 14,2 C 13,2 C 90 % 0 lf 1010,4 hPa 0,0 l/m 0,00 h 0,00 h 75 W/m 10,7 km/h (2 Bft) 96,73 %
08.08.2017 22:00 14,4 C 13,2 C 12,0 C 91 % 2 lf 1010,6 hPa 0,0 l/m 0,00 h 0,00 h 4 W/m 5,0 km/h (1 Bft) 95,10 %
08.08.2017 23:00 14,1 C 13,5 C 12,3 C 93 % 2 lf 1010,7 hPa 0,0 l/m 0,00 h 0,00 h 5 W/m 7,1 km/h (2 Bft) 97,01 %
09.08.2017 00:00 13,8 C 13,3 C 12,1 C 95 % 1 lf 1010,7 hPa 0,0 l/m 0,00 h 0,00 h 5 W/m 5,9 km/h (2 Bft) 95,55 %
09.08.2017 01:00 13,7 C 13,6 C 12,4 C 95 % 1 lf 1010,7 hPa 0,0 l/m 0,00 h 0,00 h 5 W/m 5,3 km/h (1 Bft) 97,16 %
09.08.2017 02:00 13,9 C 13,9 C 12,2 C 96 % 1 lf 1011,0 hPa 0,0 l/m 0,00 h 0,00 h 5 W/m 8,6 km/h (2 Bft) 97,37 %
09.08.2017 03:00 14,1 C 13,8 C 12,4 C 96 % 1 lf 1011,3 hPa 0,0 l/m 0,00 h 0,00 h 0 W/m 7,6 km/h (2 Bft) 94,74 %
09.08.2017 04:00 14,3 C 14,4 C 13,1 C 96 % 1 lf 1011,7 hPa 0,0 l/m 0,00 h 0,00 h 0 W/m 8,5 km/h (2 Bft) 90,58 %
09.08.2017 05:00 14,6 C 14,6 C 13,4 C 95 % 0 lf 1012,0 hPa 0,0 l/m 0,00 h 0,00 h 7 W/m 14,2 km/h (3 Bft) 99,08 %
09.08.2017 06:00 14,7 C 14,6 C 13,9 C 93 % 0 lf 1012,7 hPa 0,0 l/m 0,00 h 0,00 h 11 W/m 16,9 km/h (3 Bft) 93,15 %
09.08.2017 07:00 14,9 C 15,2 C 14,1 C 90 % 0 lf 1013,1 hPa 0,0 l/m 0,27 h 0,00 h 87 W/m 18,3 km/h (3 Bft) 96,87 %
09.08.2017 08:00 15,4 C 16,6 C 14,9 C 87 % 0 lf 1013,6 hPa 0,0 l/m 0,83 h 0,00 h 263 W/m 21,3 km/h (4 Bft) 97,15 %
09.08.2017 09:00 16,5 C 20,2 C 16,8 C 83 % 0 lf 1014,1 hPa 0,0 l/m 0,93 h 0,00 h 433 W/m 17,1 km/h (3 Bft) 96,81 %
09.08.2017 10:00 17,9 C 23,0 C 21,0 C 77 % 0 lf 1014,4 hPa 0,0 l/m 0,97 h 0,00 h 470 W/m 18,2 km/h (3 Bft) 95,39 %
09.08.2017 11:00 19,5 C 25,8 C 23,4 C 70 % 0 lf 1014,8 hPa 0,0 l/m 0,97 h 0,00 h 622 W/m 18,5 km/h (3 Bft) 97,85 %
09.08.2017 12:00 20,2 C 24,2 C 22,7 C 66 % 0 lf 1015,2 hPa 0,0 l/m 0,37 h 0,00 h 461 W/m 19,0 km/h (3 Bft) 97,54 %
09.08.2017 13:00 20,7 C 24,6 C 23,0 C 66 % 0 lf 1015,3 hPa 0,0 l/m 0,83 h 0,00 h 544 W/m 16,9 km/h (3 Bft) 95,03 %
09.08.2017 14:00 21,5 C 26,1 C 24,2 C 65 % 0 lf 1015,4 hPa 0,0 l/m 0,73 h 0,00 h 767 W/m 15,9 km/h (3 Bft) 97,58 %
09.08.2017 15:00 23,0 C 29,1 C 31,4 C 59 % 0 lf 1015,3 hPa 0,0 l/m 1,00 h 0,00 h 786 W/m 17,7 km/h (3 Bft) 97,61 %
09.08.2017 16:00 23,2 C 26,1 C 27,2 C 57 % 0 lf 1015,3 hPa 0,0 l/m 0,80 h 0,00 h 580 W/m 14,6 km/h (3 Bft) 93,38 %
09.08.2017 17:00 23,1 C 24,1 C 23,3 C 56 % 0 lf 1015,4 hPa 0,0 l/m 0,50 h 0,00 h 366 W/m 11,1 km/h (2 Bft) 97,80 %
09.08.2017 18:00 22,6 C 23,3 C 22,2 C 57 % 0 lf 1015,5 hPa 0,0 l/m 0,40 h 0,00 h 270 W/m 12,2 km/h (2 Bft) 99,07 %
09.08.2017 19:00 21,7 C 21,4 C 20,2 C 59 % 0 lf 1015,9 hPa 0,0 l/m 0,40 h 0,00 h 104 W/m 6,1 km/h (2 Bft) 93,32 %
09.08.2017 20:00 20,7 C 19,3 C 18,0 C 62 % 0 lf 1016,0 hPa 0,0 l/m 0,10 h 0,00 h 34 W/m 6,7 km/h (2 Bft) 97,51 %
09.08.2017 21:00 19,3 C 16,9 C 15,2 C 68 % 0 lf 1016,5 hPa 0,0 l/m 0,00 h 0,00 h 6 W/m 1,0 km/h (0 Bft) 97,30 %
09.08.2017 22:00 17,6 C 16,1 C 14,6 C 76 % 0 lf 1016,9 hPa 0,0 l/m 0,00 h 0,00 h 5 W/m 0,4 km/h (0 Bft) 95,16 %
09.08.2017 23:00 16,8 C 15,7 C 14,7 C 80 % 0 lf 1017,0 hPa 0,0 l/m 0,00 h 0,00 h 0 W/m 2,4 km/h (1 Bft) 95,59 %
10.08.2017 00:00 16,4 C 15,6 C 14,9 C 83 % 0 lf 1017,2 hPa 0,0 l/m 0,00 h 0,13 h 0 W/m 2,4 km/h (1 Bft) 97,44 %
10.08.2017 01:00 16,2 C 15,2 C 14,4 C 85 % 1 lf 1017,5 hPa 0,0 l/m 0,00 h 0,13 h 2 W/m 2,5 km/h (1 Bft) 95,38 %
10.08.2017 02:00 15,9 C 14,9 C 14,1 C 87 % 5 lf 1018,0 hPa 0,4 l/m 0,00 h 0,50 h 5 W/m 6,4 km/h (2 Bft) 97,47 %
10.08.2017 03:00 15,6 C 13,9 C 13,2 C 90 % 15 lf 1018,0 hPa 1,2 l/m 0,00 h 1,00 h 4 W/m 8,5 km/h (2 Bft) 95,64 %
10.08.2017 04:00 14,8 C 13,8 C 13,0 C 93 % 15 lf 1018,1 hPa 1,6 l/m 0,00 h 1,00 h 5 W/m 3,5 km/h (1 Bft) 95,71 %
10.08.2017 05:00 14,6 C 13,9 C 13,3 C 95 % 15 lf 1018,3 hPa 0,8 l/m 0,00 h 1,00 h 5 W/m 3,0 km/h (1 Bft) 98,15 %
10.08.2017 06:00 14,5 C 13,9 C 13,3 C 95 % 15 lf 1018,4 hPa 1,0 l/m 0,00 h 1,00 h 16 W/m 3,6 km/h (1 Bft) 95,36 %
10.08.2017 07:00 14,6 C 13,9 C 13,3 C 96 % 15 lf 1018,3 hPa 0,4 l/m 0,00 h 0,93 h 20 W/m 4,5 km/h (1 Bft) 94,81 %
10.08.2017 08:00 14,6 C 14,0 C 13,3 C 96 % 15 lf 1018,7 hPa 0,8 l/m 0,00 h 1,00 h 63 W/m 3,6 km/h (1 Bft) 97,60 %
10.08.2017 09:00 14,7 C 14,4 C 13,7 C 97 % 15 lf 1019,0 hPa 0,8 l/m 0,00 h 1,00 h 69 W/m 4,8 km/h (1 Bft) 96,52 %
10.08.2017 10:00 15,1 C 15,3 C 14,5 C 97 % 15 lf 1019,3 hPa 0,2 l/m 0,00 h 0,63 h 174 W/m 8,0 km/h (2 Bft) 94,30 %
10.08.2017 11:00 15,5 C 16,0 C 15,0 C 98 % 15 lf 1019,7 hPa 0,0 l/m 0,00 h 0,17 h 208 W/m 7,2 km/h (2 Bft) 98,08 %
10.08.2017 12:00 15,8 C 17,0 C 15,7 C 98 % 2 lf 1019,7 hPa 0,0 l/m 0,00 h 0,10 h 240 W/m 4,9 km/h (1 Bft) 96,29 %
10.08.2017 13:00 16,5 C 17,1 C 15,8 C 97 % 3 lf 1019,9 hPa 0,0 l/m 0,00 h 0,73 h 201 W/m 1,2 km/h (1 Bft) 96,09 %
10.08.2017 14:00 16,8 C 17,2 C 15,6 C 94 % 15 lf 1019,8 hPa 0,4 l/m 0,00 h 1,00 h 155 W/m 4,0 km/h (1 Bft) 96,30 %
10.08.2017 15:00 17,1 C 17,7 C 15,8 C 93 % 15 lf 1019,8 hPa 0,2 l/m 0,00 h 0,97 h 153 W/m 4,8 km/h (1 Bft) 96,67 %
10.08.2017 16:00 17,1 C 17,1 C 15,7 C 92 % 15 lf 1019,6 hPa 0,2 l/m 0,00 h 0,97 h 148 W/m 5,2 km/h (1 Bft) 96,68 %
10.08.2017 17:00 17,2 C 16,6 C 15,5 C 93 % 15 lf 1019,4 hPa 0,4 l/m 0,00 h 1,00 h 138 W/m 3,1 km/h (1 Bft) 96,23 %
10.08.2017 18:00 17,1 C 16,2 C 15,2 C 93 % 15 lf 1019,1 hPa 0,2 l/m 0,00 h 0,97 h 105 W/m 2,4 km/h (1 Bft) 95,58 %
10.08.2017 19:00 16,8 C 15,6 C 14,9 C 93 % 15 lf 1019,3 hPa 1,2 l/m 0,00 h 1,00 h 63 W/m 1,5 km/h (1 Bft) 97,09 %
10.08.2017 20:00 16,3 C 15,4 C 14,6 C 95 % 15 lf 1019,0 hPa 1,0 l/m 0,00 h 0,93 h 27 W/m 3,9 km/h (1 Bft) 96,62 %
10.08.2017 21:00 16,0 C 15,0 C 14,4 C 96 % 15 lf 1019,1 hPa 0,0 l/m 0,00 h 0,07 h 18 W/m 4,1 km/h (1 Bft) 95,16 %
10.08.2017 22:00 15,7 C 15,0 C 14,3 C 96 % 15 lf 1019,1 hPa 0,0 l/m 0,00 h 0,13 h 0 W/m 4,3 km/h (1 Bft) 96,87 %
10.08.2017 23:00 15,6 C 15,0 C 14,3 C 97 % 15 lf 1019,2 hPa 0,2 l/m 0,00 h 0,80 h 0 W/m 6,9 km/h (2 Bft) 97,01 %
11.08.2017 00:00 15,4 C 14,5 C 13,9 C 97 % 15 lf 1019,0 hPa 0,0 l/m 0,00 h 0,33 h 18 W/m 10,2 km/h (2 Bft) 95,34 %
11.08.2017 01:00 14,9 C 14,3 C 13,4 C 98 % 15 lf 1018,5 hPa 0,0 l/m 0,00 h 0,03 h 0 W/m 9,4 km/h (2 Bft) 96,51 %
11.08.2017 02:00 14,5 C 13,9 C 13,2 C 98 % 15 lf 1018,2 hPa 0,2 l/m 0,00 h 0,27 h 0 W/m 7,8 km/h (2 Bft) 95,82 %
11.08.2017 03:00 14,2 C 13,9 C 13,0 C 98 % 15 lf 1017,6 hPa 0,0 l/m 0,00 h 0,17 h 0 W/m 8,5 km/h (2 Bft) 97,79 %
11.08.2017 04:00 14,2 C 13,6 C 12,8 C 98 % 15 lf 1017,3 hPa 0,0 l/m 0,00 h 0,00 h 0 W/m 10,6 km/h (2 Bft) 95,50 %
11.08.2017 05:00 14,2 C 13,9 C 12,9 C 98 % 15 lf 1017,0 hPa 0,0 l/m 0,00 h 0,00 h 4 W/m 10,7 km/h (2 Bft) 97,22 %
11.08.2017 06:00 14,3 C 13,9 C 13,3 C 99 % 15 lf 1016,9 hPa 0,0 l/m 0,00 h 0,00 h 5 W/m 7,0 km/h (2 Bft) 96,55 %
11.08.2017 07:00 14,6 C 14,3 C 13,4 C 99 % 15 lf 1016,8 hPa 0,2 l/m 0,00 h 0,00 h 19 W/m 7,1 km/h (2 Bft) 97,00 %
11.08.2017 08:00 14,8 C 14,9 C 14,1 C 99 % 15 lf 1016,8 hPa 0,0 l/m 0,00 h 0,00 h 63 W/m 6,2 km/h (2 Bft) 94,87 %
11.08.2017 09:00 14,9 C 15,9 C 14,8 C 99 % 10 lf 1016,9 hPa 0,0 l/m 0,10 h 0,00 h 159 W/m 10,8 km/h (2 Bft) 97,64 %
11.08.2017 10:00 15,8 C 20,5 C 16,4 C 99 % 0 lf 1016,9 hPa 0,0 l/m 0,43 h 0,00 h 300 W/m 11,5 km/h (2 Bft) 95,60 %
11.08.2017 11:00 17,0 C 20,6 C 17,2 C 93 % 0 lf 1016,8 hPa 0,0 l/m 0,17 h 0,00 h 268 W/m 11,6 km/h (2 Bft) 96,58 %
11.08.2017 12:00 17,6 C 20,4 C 18,3 C 85 % 0 lf 1016,9 hPa 0,0 l/m 0,15 h 0,00 h 218 W/m 11,7 km/h (2 Bft) 96,15 %
11.08.2017 13:00 17,8 C 20,3 C 19,4 C 84 % 0 lf 1016,8 hPa 0,0 l/m 0,17 h 0,00 h 267 W/m 11,3 km/h (2 Bft) 96,38 %
11.08.2017 14:00 18,7 C 21,9 C 20,2 C 80 % 0 lf 1016,4 hPa 0,0 l/m 0,17 h 0,00 h 281 W/m 10,2 km/h (2 Bft) 96,73 %
11.08.2017 15:00 18,5 C 19,4 C 17,9 C 79 % 0 lf 1016,0 hPa 0,0 l/m 0,00 h 0,00 h 137 W/m 10,0 km/h (2 Bft) 96,16 %
11.08.2017 16:00 18,4 C 20,9 C 19,5 C 78 % 0 lf 1015,9 hPa 0,0 l/m 0,00 h 0,00 h 246 W/m 7,6 km/h (2 Bft) 95,68 %
11.08.2017 17:00 19,4 C 20,9 C 19,8 C 77 % 0 lf 1015,6 hPa 0,0 l/m 0,00 h 0,00 h 170 W/m 5,7 km/h (1 Bft) 98,58 %
11.08.2017 18:00 19,4 C 19,8 C 18,6 C 76 % 0 lf 1015,4 hPa 0,0 l/m 0,00 h 0,00 h 90 W/m 7,3 km/h (2 Bft) 94,63 %
11.08.2017 19:00 18,8 C 18,6 C 17,4 C 77 % 0 lf 1015,0 hPa 0,0 l/m 0,00 h 0,00 h 51 W/m 6,4 km/h (2 Bft) 96,52 %
11.08.2017 20:00 18,3 C 17,4 C 16,3 C 81 % 0 lf 1014,7 hPa 0,0 l/m 0,00 h 0,00 h 14 W/m 5,2 km/h (1 Bft) 98,72 %
11.08.2017 21:00 17,4 C 16,4 C 15,1 C 83 % 0 lf 1014,6 hPa 0,0 l/m 0,00 h 0,00 h 5 W/m 6,9 km/h (2 Bft) 95,37 %
11.08.2017 22:00 16,8 C 16,1 C 14,8 C 83 % 0 lf 1014,8 hPa 0,0 l/m 0,00 h 0,00 h 4 W/m 7,6 km/h (2 Bft) 95,55 %
11.08.2017 23:00 16,4 C 15,6 C 14,3 C 83 % 0 lf 1015,0 hPa 0,0 l/m 0,00 h 0,00 h 4 W/m 5,0 km/h (1 Bft) 98,08 %
12.08.2017 00:00 16,0 C 15,2 C 13,9 C 84 % 0 lf 1015,1 hPa 0,0 l/m 0,00 h 0,07 h 4 W/m 3,7 km/h (1 Bft) 91,63 %
12.08.2017 01:00 15,5 C 15,0 C 13,9 C 84 % 0 lf 1015,1 hPa 0,0 l/m 0,00 h 0,03 h 3 W/m 7,8 km/h (2 Bft) 95,04 %
12.08.2017 02:00 15,4 C 14,9 C 13,7 C 84 % 0 lf 1014,7 hPa 0,0 l/m 0,00 h 0,10 h 0 W/m 8,9 km/h (2 Bft) 97,18 %
12.08.2017 03:00 15,2 C 14,9 C 13,8 C 83 % 0 lf 1014,3 hPa 0,0 l/m 0,00 h 0,00 h 4 W/m 14,3 km/h (3 Bft) 97,64 %
12.08.2017 04:00 14,9 C 14,4 C 13,1 C 83 % 0 lf 1014,0 hPa 0,0 l/m 0,00 h 0,00 h 4 W/m 15,0 km/h (3 Bft) 95,59 %
12.08.2017 05:00 14,5 C 14,2 C 13,1 C 86 % 0 lf 1013,8 hPa 0,0 l/m 0,00 h 0,00 h 2 W/m 15,2 km/h (3 Bft) 96,08 %
12.08.2017 06:00 14,6 C 14,4 C 13,3 C 88 % 0 lf 1013,7 hPa 0,0 l/m 0,00 h 0,03 h 8 W/m 15,9 km/h (3 Bft) 96,95 %
12.08.2017 07:00 14,7 C 13,8 C 13,0 C 90 % 9 lf 1013,5 hPa 0,2 l/m 0,00 h 0,60 h 18 W/m 15,3 km/h (3 Bft) 96,46 %
12.08.2017 08:00 14,6 C 13,5 C 12,9 C 93 % 15 lf 1013,6 hPa 0,4 l/m 0,00 h 0,77 h 37 W/m 14,7 km/h (3 Bft) 94,98 %
12.08.2017 09:00 14,6 C 14,0 C 13,5 C 96 % 15 lf 1013,6 hPa 0,6 l/m 0,00 h 0,73 h 73 W/m 15,1 km/h (3 Bft) 96,87 %
12.08.2017 10:00 14,8 C 14,4 C 13,9 C 97 % 15 lf 1013,7 hPa 0,4 l/m 0,00 h 0,47 h 76 W/m 16,6 km/h (3 Bft) 96,13 %
12.08.2017 11:00 15,2 C 14,8 C 14,3 C 97 % 15 lf 1014,0 hPa 0,0 l/m 0,00 h 0,17 h 84 W/m 20,9 km/h (4 Bft) 97,33 %
12.08.2017 12:00 15,8 C 15,9 C 15,3 C 98 % 10 lf 1014,1 hPa 0,0 l/m 0,00 h 0,03 h 154 W/m 21,3 km/h (4 Bft) 94,51 %
12.08.2017 13:00 16,8 C 17,7 C 16,5 C 96 % 0 lf 1014,4 hPa 0,0 l/m 0,00 h 0,00 h 199 W/m 24,8 km/h (4 Bft) 97,30 %
12.08.2017 14:00 17,7 C 19,2 C 17,2 C 92 % 0 lf 1014,6 hPa 0,0 l/m 0,10 h 0,00 h 255 W/m 27,5 km/h (4 Bft) 96,12 %
12.08.2017 15:00 18,7 C 20,4 C 19,5 C 89 % 0 lf 1014,6 hPa 0,0 l/m 1,00 h 0,00 h 663 W/m 25,3 km/h (4 Bft) 97,79 %
12.08.2017 16:00 18,7 C 19,8 C 19,2 C 89 % 0 lf 1014,8 hPa 0,0 l/m 0,53 h 0,00 h 471 W/m 26,6 km/h (4 Bft) 94,25 %
12.08.2017 17:00 19,0 C 19,5 C 18,9 C 88 % 2 lf 1014,9 hPa 0,0 l/m 0,00 h 0,10 h 199 W/m 23,8 km/h (4 Bft) 98,15 %
12.08.2017 18:00 18,3 C 17,5 C 16,8 C 93 % 14 lf 1014,9 hPa 0,2 l/m 0,37 h 0,37 h 188 W/m 17,3 km/h (3 Bft) 97,15 %
12.08.2017 19:00 18,3 C 17,8 C 16,4 C 94 % 0 lf 1014,7 hPa 0,0 l/m 0,43 h 0,03 h 169 W/m 18,3 km/h (3 Bft) 93,88 %
12.08.2017 20:00 17,9 C 16,9 C 15,7 C 94 % 13 lf 1015,2 hPa 5,2 l/m 0,00 h 0,97 h 22 W/m 16,2 km/h (3 Bft) 97,58 %
12.08.2017 21:00 17,4 C 16,3 C 15,6 C 96 % 15 lf 1015,6 hPa 0,2 l/m 0,00 h 0,03 h 6 W/m 17,0 km/h (3 Bft) 98,20 %
12.08.2017 22:00 17,0 C 16,1 C 15,6 C 97 % 15 lf 1016,1 hPa 0,8 l/m 0,00 h 0,20 h 0 W/m 12,6 km/h (3 Bft) 93,29 %
12.08.2017 23:00 16,8 C 16,1 C 15,2 C 97 % 15 lf 1016,2 hPa 1,4 l/m 0,00 h 0,47 h 0 W/m 7,0 km/h (2 Bft) 97,92 %
13.08.2017 00:00 16,6 C 16,1 C 15,0 C 98 % 15 lf 1016,2 hPa 0,0 l/m 0,00 h 0,00 h 0 W/m 6,8 km/h (2 Bft) 96,89 %
13.08.2017 01:00 16,6 C 16,0 C 15,0 C 98 % 15 lf 1016,4 hPa 0,0 l/m 0,00 h 0,00 h 0 W/m 4,9 km/h (1 Bft) 95,43 %
13.08.2017 02:00 16,5 C 16,1 C 15,0 C 98 % 15 lf 1016,4 hPa 0,0 l/m 0,00 h 0,17 h 0 W/m 5,7 km/h (1 Bft) 95,88 %
13.08.2017 03:00 16,5 C 15,8 C 15,0 C 98 % 15 lf 1016,4 hPa 0,2 l/m 0,00 h 0,10 h 0 W/m 6,9 km/h (2 Bft) 97,51 %
13.08.2017 04:00 16,3 C 15,6 C 14,6 C 98 % 15 lf 1016,6 hPa 0,0 l/m 0,00 h 0,00 h 0 W/m 5,5 km/h (1 Bft) 95,15 %
13.08.2017 05:00 16,1 C 15,6 C 14,6 C 99 % 15 lf 1016,7 hPa 0,0 l/m 0,00 h 0,13 h 0 W/m 4,8 km/h (1 Bft) 97,98 %
13.08.2017 06:00 16,0 C 15,4 C 14,4 C 99 % 15 lf 1017,1 hPa 0,0 l/m 0,00 h 0,00 h 14 W/m 6,5 km/h (2 Bft) 94,90 %
13.08.2017 07:00 15,7 C 15,2 C 14,2 C 99 % 15 lf 1017,6 hPa 0,0 l/m 0,33 h 0,00 h 72 W/m 10,9 km/h (2 Bft) 96,91 %
13.08.2017 08:00 15,8 C 16,3 C 15,3 C 99 % 15 lf 1018,3 hPa 0,0 l/m 0,67 h 0,00 h 196 W/m 10,2 km/h (2 Bft) 97,88 %
13.08.2017 09:00 16,1 C 16,8 C 16,1 C 99 % 3 lf 1018,7 hPa 0,0 l/m 0,13 h 0,00 h 186 W/m 12,5 km/h (3 Bft) 94,68 %
13.08.2017 10:00 16,5 C 18,4 C 16,6 C 97 % 0 lf 1019,4 hPa 0,0 l/m 0,27 h 0,00 h 252 W/m 12,1 km/h (2 Bft) 95,29 %
13.08.2017 11:00 17,7 C 22,0 C 18,4 C 92 % 0 lf 1019,7 hPa 0,0 l/m 0,77 h 0,00 h 477 W/m 11,8 km/h (2 Bft) 98,83 %
13.08.2017 12:00 20,0 C 28,7 C 22,9 C 82 % 0 lf 1019,7 hPa 0,0 l/m 0,53 h 0,00 h 365 W/m 11,9 km/h (2 Bft) 95,12 %
13.08.2017 13:00 22,0 C 29,9 C 22,6 C 72 % 0 lf 1019,4 hPa 0,0 l/m 0,53 h 0,00 h 351 W/m 11,8 km/h (2 Bft) 96,35 %
13.08.2017 14:00 22,8 C 28,4 C 25,3 C 66 % 0 lf 1019,3 hPa 0,0 l/m 0,47 h 0,00 h 388 W/m 12,0 km/h (2 Bft) 96,82 %
13.08.2017 15:00 22,9 C 25,8 C 24,6 C 64 % 0 lf 1019,5 hPa 0,0 l/m 0,23 h 0,00 h 351 W/m 15,1 km/h (3 Bft) 95,81 %
13.08.2017 16:00 22,1 C 25,4 C 23,9 C 70 % 0 lf 1019,6 hPa 0,0 l/m 0,80 h 0,00 h 470 W/m 17,1 km/h (3 Bft) 97,06 %
13.08.2017 17:00 22,5 C 24,2 C 22,7 C 65 % 0 lf 1019,7 hPa 0,0 l/m 1,00 h 0,00 h 421 W/m 13,1 km/h (3 Bft) 95,35 %
13.08.2017 18:00 21,8 C 22,6 C 20,5 C 62 % 0 lf 1019,7 hPa 0,0 l/m 0,80 h 0,00 h 280 W/m 10,6 km/h (2 Bft) 97,58 %
13.08.2017 19:00 21,0 C 20,8 C 19,2 C 63 % 0 lf 1019,7 hPa 0,0 l/m 0,77 h 0,00 h 128 W/m 9,4 km/h (2 Bft) 95,05 %
13.08.2017 20:00 20,3 C 18,5 C 16,6 C 69 % 0 lf 1019,8 hPa 0,0 l/m 0,20 h 0,00 h 31 W/m 4,8 km/h (1 Bft) 96,95 %
13.08.2017 21:00 18,4 C 15,4 C 13,8 C 78 % 0 lf 1020,2 hPa 0,0 l/m 0,00 h 0,00 h 5 W/m 0,9 km/h (0 Bft) 97,76 %
13.08.2017 22:00 16,6 C 14,1 C 12,9 C 84 % 0 lf 1020,5 hPa 0,0 l/m 0,00 h 0,00 h 0 W/m 1,4 km/h (1 Bft) 94,34 %
13.08.2017 23:00 15,3 C 13,1 C 12,3 C 87 % 1 lf 1020,7 hPa 0,0 l/m 0,00 h 0,00 h 4 W/m 0,8 km/h (0 Bft) 96,31 %
Min-Datum _ 07.08.17 07.08.17 07.08.17 07.08.17 07.08.17 08.08.17 - - - - 07.08.17 09.08.17
_ Min-Zeit 06:18 05:46 05:26 17:08 00:00 13:56 - - - - 00:00 04:08
Minimum _ 10,8 C 9,4 C 8,9 C 45 % 0 lf 1006,1 hPa - - - - 0,0 km/h (0 Bft) 4,76 %
Max-Datum _ 07.08.17 07.08.17 07.08.17 11.08.17 08.08.17 07.08.17 12.08.17 07.08.17 08.08.17 07.08.17 12.08.17 07.08.17
_ Max-Zeit 16:30 12:00 15:44 06:10 14:18 00:00 20:42 18:10 12:10 13:38 14:28 00:00
Maximum _ 26,6 C 35,6 C 35,6 C 99 % 15 lf 1021,5 hPa 5,2 l/m 0,07 h 0,07 h 1096 W/m 43,9 km/h
W-SW (6 Bft)
100,00 %
Durchschnitt _ 17,4 C 17,9 C 16,5 C 84 % 5 lf 1015,6 hPa #21,8 l/m #35:05 h #26:40 h 174 W/m 9,5 km/h (2 Bft) 96,34 %
© 2017 W. Hausmann